sensor_id;sensor_type;location;lat;lon;timestamp;temperature;humidity
22781;DHT22;11557;50.884;4.322;2023-02-28T00:01:38;4.00;99.90
22781;DHT22;11557;50.884;4.322;2023-02-28T00:04:05;4.00;99.90
22781;DHT22;11557;50.884;4.322;2023-02-28T00:06:30;4.00;99.90
22781;DHT22;11557;50.884;4.322;2023-02-28T00:08:56;4.20;99.90
22781;DHT22;11557;50.884;4.322;2023-02-28T00:11:22;3.90;99.90
22781;DHT22;11557;50.884;4.322;2023-02-28T00:13:48;4.00;99.90
22781;DHT22;11557;50.884;4.322;2023-02-28T00:16:19;4.10;99.90
22781;DHT22;11557;50.884;4.322;2023-02-28T00:18:45;4.10;99.90
22781;DHT22;11557;50.884;4.322;2023-02-28T00:21:12;4.10;99.90
22781;DHT22;11557;50.884;4.322;2023-02-28T00:23:38;4.00;99.90
22781;DHT22;11557;50.884;4.322;2023-02-28T00:26:04;3.50;99.90
22781;DHT22;11557;50.884;4.322;2023-02-28T00:28:30;3.80;99.90
22781;DHT22;11557;50.884;4.322;2023-02-28T00:30:55;3.80;99.90
22781;DHT22;11557;50.884;4.322;2023-02-28T00:33:22;3.60;99.90
22781;DHT22;11557;50.884;4.322;2023-02-28T00:35:48;3.50;99.90
22781;DHT22;11557;50.884;4.322;2023-02-28T00:38:15;3.60;99.90
22781;DHT22;11557;50.884;4.322;2023-02-28T00:40:41;3.80;99.90
22781;DHT22;11557;50.884;4.322;2023-02-28T00:43:07;3.90;99.90
22781;DHT22;11557;50.884;4.322;2023-02-28T00:45:32;3.80;99.90
22781;DHT22;11557;50.884;4.322;2023-02-28T00:47:58;3.80;99.90
22781;DHT22;11557;50.884;4.322;2023-02-28T00:50:24;3.70;99.90
22781;DHT22;11557;50.884;4.322;2023-02-28T00:52:49;3.60;99.90
22781;DHT22;11557;50.884;4.322;2023-02-28T00:55:15;3.50;99.90
22781;DHT22;11557;50.884;4.322;2023-02-28T00:57:41;3.40;99.90
22781;DHT22;11557;50.884;4.322;2023-02-28T01:00:08;3.30;99.90
22781;DHT22;11557;50.884;4.322;2023-02-28T01:02:33;3.50;99.90
22781;DHT22;11557;50.884;4.322;2023-02-28T01:04:59;3.80;99.90
22781;DHT22;11557;50.884;4.322;2023-02-28T01:07:25;3.60;99.90
22781;DHT22;11557;50.884;4.322;2023-02-28T01:09:50;3.90;99.90
22781;DHT22;11557;50.884;4.322;2023-02-28T01:12:16;3.60;99.90
22781;DHT22;11557;50.884;4.322;2023-02-28T01:14:42;3.50;99.90
22781;DHT22;11557;50.884;4.322;2023-02-28T01:17:08;3.70;99.90
22781;DHT22;11557;50.884;4.322;2023-02-28T01:19:34;3.60;99.90
22781;DHT22;11557;50.884;4.322;2023-02-28T01:22:05;3.60;99.90
22781;DHT22;11557;50.884;4.322;2023-02-28T01:24:32;3.60;99.90
22781;DHT22;11557;50.884;4.322;2023-02-28T01:26:58;3.70;99.90
22781;DHT22;11557;50.884;4.322;2023-02-28T01:29:25;3.70;99.90
22781;DHT22;11557;50.884;4.322;2023-02-28T01:31:50;3.60;99.90
22781;DHT22;11557;50.884;4.322;2023-02-28T01:34:16;3.40;99.90
22781;DHT22;11557;50.884;4.322;2023-02-28T01:36:44;3.30;99.90
22781;DHT22;11557;50.884;4.322;2023-02-28T01:39:10;3.30;99.90
22781;DHT22;11557;50.884;4.322;2023-02-28T01:41:35;3.30;99.90
22781;DHT22;11557;50.884;4.322;2023-02-28T01:46:34;3.20;99.90
22781;DHT22;11557;50.884;4.322;2023-02-28T01:49:13;3.10;99.90
22781;DHT22;11557;50.884;4.322;2023-02-28T01:51:49;3.80;99.90
22781;DHT22;11557;50.884;4.322;2023-02-28T01:54:29;3.10;99.90
22781;DHT22;11557;50.884;4.322;2023-02-28T01:59:52;3.10;99.90
22781;DHT22;11557;50.884;4.322;2023-02-28T02:02:18;3.10;99.90
22781;DHT22;11557;50.884;4.322;2023-02-28T02:04:51;3.50;99.90
22781;DHT22;11557;50.884;4.322;2023-02-28T02:07:18;3.20;99.90
22781;DHT22;11557;50.884;4.322;2023-02-28T02:09:44;3.20;99.90
22781;DHT22;11557;50.884;4.322;2023-02-28T02:15:13;2.80;99.90
22781;DHT22;11557;50.884;4.322;2023-02-28T02:17:42;3.10;99.90
22781;DHT22;11557;50.884;4.322;2023-02-28T02:20:32;2.90;99.90
22781;DHT22;11557;50.884;4.322;2023-02-28T02:26:21;2.90;99.90
22781;DHT22;11557;50.884;4.322;2023-02-28T02:31:32;2.90;99.90
22781;DHT22;11557;50.884;4.322;2023-02-28T02:45:15;3.30;99.90
22781;DHT22;11557;50.884;4.322;2023-02-28T02:47:43;3.20;99.90
22781;DHT22;11557;50.884;4.322;2023-02-28T02:50:15;3.40;99.90
22781;DHT22;11557;50.884;4.322;2023-02-28T02:52:48;3.20;99.90
22781;DHT22;11557;50.884;4.322;2023-02-28T02:55:15;3.10;99.90
22781;DHT22;11557;50.884;4.322;2023-02-28T02:57:59;3.20;99.90
22781;DHT22;11557;50.884;4.322;2023-02-28T03:00:36;3.10;99.90
22781;DHT22;11557;50.884;4.322;2023-02-28T03:03:03;2.90;99.90
22781;DHT22;11557;50.884;4.322;2023-02-28T03:05:39;3.20;99.90
22781;DHT22;11557;50.884;4.322;2023-02-28T03:08:07;3.10;99.90
22781;DHT22;11557;50.884;4.322;2023-02-28T03:10:40;3.30;99.90
22781;DHT22;11557;50.884;4.322;2023-02-28T03:16:16;3.30;99.90
22781;DHT22;11557;50.884;4.322;2023-02-28T03:21:32;3.20;99.90
22781;DHT22;11557;50.884;4.322;2023-02-28T03:24:16;4.10;99.90
22781;DHT22;11557;50.884;4.322;2023-02-28T03:26:47;3.00;99.90
22781;DHT22;11557;50.884;4.322;2023-02-28T03:29:16;3.00;99.90
22781;DHT22;11557;50.884;4.322;2023-02-28T03:32:00;3.00;99.90
22781;DHT22;11557;50.884;4.322;2023-02-28T03:34:31;3.00;99.90
22781;DHT22;11557;50.884;4.322;2023-02-28T03:37:02;2.90;99.90
22781;DHT22;11557;50.884;4.322;2023-02-28T03:39:42;2.90;99.90
22781;DHT22;11557;50.884;4.322;2023-02-28T03:42:14;2.90;99.90
22781;DHT22;11557;50.884;4.322;2023-02-28T03:45:00;3.50;99.90
22781;DHT22;11557;50.884;4.322;2023-02-28T03:47:52;2.80;99.90
22781;DHT22;11557;50.884;4.322;2023-02-28T03:53:09;2.70;99.90
22781;DHT22;11557;50.884;4.322;2023-02-28T03:55:45;2.70;99.90
22781;DHT22;11557;50.884;4.322;2023-02-28T04:00:55;2.70;99.90
22781;DHT22;11557;50.884;4.322;2023-02-28T04:03:22;2.80;99.90
22781;DHT22;11557;50.884;4.322;2023-02-28T04:05:53;3.40;99.90
22781;DHT22;11557;50.884;4.322;2023-02-28T04:08:19;2.80;99.90
22781;DHT22;11557;50.884;4.322;2023-02-28T04:10:50;2.90;99.90
22781;DHT22;11557;50.884;4.322;2023-02-28T04:13:18;3.40;99.90
22781;DHT22;11557;50.884;4.322;2023-02-28T04:15:44;3.00;99.90
22781;DHT22;11557;50.884;4.322;2023-02-28T04:18:09;2.60;99.90
22781;DHT22;11557;50.884;4.322;2023-02-28T04:20:35;3.50;99.90
22781;DHT22;11557;50.884;4.322;2023-02-28T04:23:01;3.80;99.90
22781;DHT22;11557;50.884;4.322;2023-02-28T04:25:27;3.40;99.90
22781;DHT22;11557;50.884;4.322;2023-02-28T04:27:52;2.80;99.90
22781;DHT22;11557;50.884;4.322;2023-02-28T04:30:18;2.90;99.90
22781;DHT22;11557;50.884;4.322;2023-02-28T04:32:44;3.00;99.90
22781;DHT22;11557;50.884;4.322;2023-02-28T04:35:09;3.30;99.90
22781;DHT22;11557;50.884;4.322;2023-02-28T04:37:35;3.30;99.90
22781;DHT22;11557;50.884;4.322;2023-02-28T04:40:02;3.00;99.90
22781;DHT22;11557;50.884;4.322;2023-02-28T04:42:28;2.90;99.90
22781;DHT22;11557;50.884;4.322;2023-02-28T04:45:04;2.80;99.90
22781;DHT22;11557;50.884;4.322;2023-02-28T04:47:30;2.80;99.90
22781;DHT22;11557;50.884;4.322;2023-02-28T04:49:56;2.90;99.90
22781;DHT22;11557;50.884;4.322;2023-02-28T04:52:21;3.00;99.90
22781;DHT22;11557;50.884;4.322;2023-02-28T04:54:47;3.00;99.90
22781;DHT22;11557;50.884;4.322;2023-02-28T04:57:13;2.80;99.90
22781;DHT22;11557;50.884;4.322;2023-02-28T04:59:38;2.90;99.90
22781;DHT22;11557;50.884;4.322;2023-02-28T05:02:04;2.90;99.90
22781;DHT22;11557;50.884;4.322;2023-02-28T05:04:35;2.90;99.90
22781;DHT22;11557;50.884;4.322;2023-02-28T05:07:01;2.80;99.90
22781;DHT22;11557;50.884;4.322;2023-02-28T05:09:28;2.50;99.90
22781;DHT22;11557;50.884;4.322;2023-02-28T05:11:54;3.20;99.90
22781;DHT22;11557;50.884;4.322;2023-02-28T05:14:20;2.70;99.90
22781;DHT22;11557;50.884;4.322;2023-02-28T05:16:45;3.00;99.90
22781;DHT22;11557;50.884;4.322;2023-02-28T05:19:11;3.10;99.90
22781;DHT22;11557;50.884;4.322;2023-02-28T05:21:42;3.10;99.90
22781;DHT22;11557;50.884;4.322;2023-02-28T05:24:13;3.50;99.90
22781;DHT22;11557;50.884;4.322;2023-02-28T05:26:42;3.10;99.90
22781;DHT22;11557;50.884;4.322;2023-02-28T05:29:08;2.90;99.90
22781;DHT22;11557;50.884;4.322;2023-02-28T05:31:34;3.00;99.90
22781;DHT22;11557;50.884;4.322;2023-02-28T05:34:01;3.00;99.90
22781;DHT22;11557;50.884;4.322;2023-02-28T05:36:26;2.90;99.90
22781;DHT22;11557;50.884;4.322;2023-02-28T05:38:52;3.00;99.90
22781;DHT22;11557;50.884;4.322;2023-02-28T05:41:19;3.00;99.90
22781;DHT22;11557;50.884;4.322;2023-02-28T05:43:45;3.30;99.90
22781;DHT22;11557;50.884;4.322;2023-02-28T05:46:13;3.30;99.90
22781;DHT22;11557;50.884;4.322;2023-02-28T05:48:40;3.50;99.90
22781;DHT22;11557;50.884;4.322;2023-02-28T05:51:07;3.80;99.90
22781;DHT22;11557;50.884;4.322;2023-02-28T05:53:33;3.60;99.90
22781;DHT22;11557;50.884;4.322;2023-02-28T05:55:59;3.80;99.90
22781;DHT22;11557;50.884;4.322;2023-02-28T05:58:25;3.80;99.90
22781;DHT22;11557;50.884;4.322;2023-02-28T06:00:54;3.90;99.90
22781;DHT22;11557;50.884;4.322;2023-02-28T06:03:20;3.50;99.90
22781;DHT22;11557;50.884;4.322;2023-02-28T06:05:46;3.60;99.90
22781;DHT22;11557;50.884;4.322;2023-02-28T06:08:11;3.50;99.90
22781;DHT22;11557;50.884;4.322;2023-02-28T06:10:37;3.60;99.90
22781;DHT22;11557;50.884;4.322;2023-02-28T06:13:04;4.00;99.90
22781;DHT22;11557;50.884;4.322;2023-02-28T06:15:29;3.90;99.90
22781;DHT22;11557;50.884;4.322;2023-02-28T06:17:56;3.80;99.90
22781;DHT22;11557;50.884;4.322;2023-02-28T06:20:23;3.70;99.90
22781;DHT22;11557;50.884;4.322;2023-02-28T06:22:49;3.40;99.90
22781;DHT22;11557;50.884;4.322;2023-02-28T06:25:19;3.50;99.90
22781;DHT22;11557;50.884;4.322;2023-02-28T06:27:45;3.60;99.90
22781;DHT22;11557;50.884;4.322;2023-02-28T06:30:11;3.60;99.90
22781;DHT22;11557;50.884;4.322;2023-02-28T06:32:37;3.30;99.90
22781;DHT22;11557;50.884;4.322;2023-02-28T06:35:03;3.40;99.90
22781;DHT22;11557;50.884;4.322;2023-02-28T06:37:31;3.20;99.90
22781;DHT22;11557;50.884;4.322;2023-02-28T06:39:56;3.30;99.90
22781;DHT22;11557;50.884;4.322;2023-02-28T06:42:23;3.50;99.90
22781;DHT22;11557;50.884;4.322;2023-02-28T06:44:54;3.40;99.90
22781;DHT22;11557;50.884;4.322;2023-02-28T06:47:21;3.40;99.90
22781;DHT22;11557;50.884;4.322;2023-02-28T06:49:47;3.50;99.90
22781;DHT22;11557;50.884;4.322;2023-02-28T06:52:12;3.40;99.90
22781;DHT22;11557;50.884;4.322;2023-02-28T06:54:38;3.60;99.90
22781;DHT22;11557;50.884;4.322;2023-02-28T06:57:04;3.10;99.90
22781;DHT22;11557;50.884;4.322;2023-02-28T06:59:30;3.70;99.90
22781;DHT22;11557;50.884;4.322;2023-02-28T07:01:55;3.50;99.90
22781;DHT22;11557;50.884;4.322;2023-02-28T07:04:21;4.30;99.90
22781;DHT22;11557;50.884;4.322;2023-02-28T07:06:47;4.20;99.90
22781;DHT22;11557;50.884;4.322;2023-02-28T07:09:13;4.00;99.90
22781;DHT22;11557;50.884;4.322;2023-02-28T07:11:40;4.00;99.90
22781;DHT22;11557;50.884;4.322;2023-02-28T07:14:06;4.10;99.90
22781;DHT22;11557;50.884;4.322;2023-02-28T07:16:32;4.50;99.90
22781;DHT22;11557;50.884;4.322;2023-02-28T07:18:58;4.00;99.90
22781;DHT22;11557;50.884;4.322;2023-02-28T07:21:23;4.00;99.90
22781;DHT22;11557;50.884;4.322;2023-02-28T07:23:50;4.00;99.90
22781;DHT22;11557;50.884;4.322;2023-02-28T07:26:17;3.60;99.90
22781;DHT22;11557;50.884;4.322;2023-02-28T07:28:45;3.30;99.90
22781;DHT22;11557;50.884;4.322;2023-02-28T07:31:12;3.60;99.90
22781;DHT22;11557;50.884;4.322;2023-02-28T07:33:39;3.70;99.90
22781;DHT22;11557;50.884;4.322;2023-02-28T07:36:08;3.90;99.90
22781;DHT22;11557;50.884;4.322;2023-02-28T07:38:37;3.90;99.90
22781;DHT22;11557;50.884;4.322;2023-02-28T07:41:03;4.00;99.90
22781;DHT22;11557;50.884;4.322;2023-02-28T07:43:32;4.10;99.90
22781;DHT22;11557;50.884;4.322;2023-02-28T07:46:06;4.20;99.90
22781;DHT22;11557;50.884;4.322;2023-02-28T07:48:32;4.30;99.90
22781;DHT22;11557;50.884;4.322;2023-02-28T07:50:59;4.50;99.90
22781;DHT22;11557;50.884;4.322;2023-02-28T07:53:25;4.40;99.90
22781;DHT22;11557;50.884;4.322;2023-02-28T07:55:54;4.40;99.90
22781;DHT22;11557;50.884;4.322;2023-02-28T07:58:20;4.50;99.90
22781;DHT22;11557;50.884;4.322;2023-02-28T08:00:46;4.50;99.90
22781;DHT22;11557;50.884;4.322;2023-02-28T08:03:12;4.40;99.90
22781;DHT22;11557;50.884;4.322;2023-02-28T08:05:40;4.50;99.90
22781;DHT22;11557;50.884;4.322;2023-02-28T08:08:06;4.50;99.90
22781;DHT22;11557;50.884;4.322;2023-02-28T08:10:32;4.30;99.90
22781;DHT22;11557;50.884;4.322;2023-02-28T08:12:58;5.10;99.90
22781;DHT22;11557;50.884;4.322;2023-02-28T08:15:24;4.60;99.90
22781;DHT22;11557;50.884;4.322;2023-02-28T08:17:49;4.70;99.90
22781;DHT22;11557;50.884;4.322;2023-02-28T08:20:15;4.80;99.90
22781;DHT22;11557;50.884;4.322;2023-02-28T08:22:41;4.80;99.90
22781;DHT22;11557;50.884;4.322;2023-02-28T08:25:08;4.70;99.90
22781;DHT22;11557;50.884;4.322;2023-02-28T08:27:34;4.70;99.90
22781;DHT22;11557;50.884;4.322;2023-02-28T08:30:00;4.70;99.90
22781;DHT22;11557;50.884;4.322;2023-02-28T08:32:25;4.70;99.90
22781;DHT22;11557;50.884;4.322;2023-02-28T08:34:51;4.90;99.90
22781;DHT22;11557;50.884;4.322;2023-02-28T08:37:17;4.90;99.90
22781;DHT22;11557;50.884;4.322;2023-02-28T08:39:42;5.00;99.90
22781;DHT22;11557;50.884;4.322;2023-02-28T08:42:08;5.20;99.90
22781;DHT22;11557;50.884;4.322;2023-02-28T08:44:34;5.50;99.90
22781;DHT22;11557;50.884;4.322;2023-02-28T08:46:59;5.40;99.90
22781;DHT22;11557;50.884;4.322;2023-02-28T08:49:25;5.30;99.90
22781;DHT22;11557;50.884;4.322;2023-02-28T08:51:51;5.10;99.90
22781;DHT22;11557;50.884;4.322;2023-02-28T08:54:17;4.90;99.90
22781;DHT22;11557;50.884;4.322;2023-02-28T08:56:45;4.80;99.90
22781;DHT22;11557;50.884;4.322;2023-02-28T08:59:13;4.80;99.90
22781;DHT22;11557;50.884;4.322;2023-02-28T09:01:39;4.80;99.90
22781;DHT22;11557;50.884;4.322;2023-02-28T09:04:06;4.70;99.90
22781;DHT22;11557;50.884;4.322;2023-02-28T09:06:34;4.60;99.90
22781;DHT22;11557;50.884;4.322;2023-02-28T09:09:00;4.60;99.90
22781;DHT22;11557;50.884;4.322;2023-02-28T09:11:27;4.60;99.90
22781;DHT22;11557;50.884;4.322;2023-02-28T09:13:53;4.50;99.90
22781;DHT22;11557;50.884;4.322;2023-02-28T09:16:21;4.80;99.90
22781;DHT22;11557;50.884;4.322;2023-02-28T09:18:47;6.30;99.90
22781;DHT22;11557;50.884;4.322;2023-02-28T09:21:15;8.70;99.90
22781;DHT22;11557;50.884;4.322;2023-02-28T09:23:42;10.70;99.90
22781;DHT22;11557;50.884;4.322;2023-02-28T09:26:23;12.50;99.90
22781;DHT22;11557;50.884;4.322;2023-02-28T09:28:49;14.40;99.90
22781;DHT22;11557;50.884;4.322;2023-02-28T09:31:21;15.50;99.90
22781;DHT22;11557;50.884;4.322;2023-02-28T09:33:48;16.30;99.90
22781;DHT22;11557;50.884;4.322;2023-02-28T09:36:14;17.20;99.90
22781;DHT22;11557;50.884;4.322;2023-02-28T09:38:40;18.50;99.90
22781;DHT22;11557;50.884;4.322;2023-02-28T09:41:39;17.60;99.90
22781;DHT22;11557;50.884;4.322;2023-02-28T09:46:48;17.00;99.70
22781;DHT22;11557;50.884;4.322;2023-02-28T09:49:18;17.50;98.60
22781;DHT22;11557;50.884;4.322;2023-02-28T09:51:59;18.00;96.80
22781;DHT22;11557;50.884;4.322;2023-02-28T09:54:30;17.50;97.40
22781;DHT22;11557;50.884;4.322;2023-02-28T09:57:01;17.50;96.20
22781;DHT22;11557;50.884;4.322;2023-02-28T09:59:54;18.10;96.60
22781;DHT22;11557;50.884;4.322;2023-02-28T10:05:16;17.90;95.10
22781;DHT22;11557;50.884;4.322;2023-02-28T10:08:03;18.00;94.60
22781;DHT22;11557;50.884;4.322;2023-02-28T10:10:41;18.10;95.40
22781;DHT22;11557;50.884;4.322;2023-02-28T10:16:09;16.30;93.40
22781;DHT22;11557;50.884;4.322;2023-02-28T10:18:59;15.60;94.60
22781;DHT22;11557;50.884;4.322;2023-02-28T10:21:34;15.80;95.40
22781;DHT22;11557;50.884;4.322;2023-02-28T10:26:48;15.00;95.90
22781;DHT22;11557;50.884;4.322;2023-02-28T10:29:14;14.70;95.00
22781;DHT22;11557;50.884;4.322;2023-02-28T10:31:40;14.70;94.50
22781;DHT22;11557;50.884;4.322;2023-02-28T10:34:07;14.30;93.80
22781;DHT22;11557;50.884;4.322;2023-02-28T10:36:45;14.20;95.20
22781;DHT22;11557;50.884;4.322;2023-02-28T10:39:37;14.10;93.70
22781;DHT22;11557;50.884;4.322;2023-02-28T10:42:20;13.70;94.20
22781;DHT22;11557;50.884;4.322;2023-02-28T10:45:09;13.40;94.50
22781;DHT22;11557;50.884;4.322;2023-02-28T10:47:49;13.00;95.60
22781;DHT22;11557;50.884;4.322;2023-02-28T10:50:43;12.50;95.60
22781;DHT22;11557;50.884;4.322;2023-02-28T11:01:40;12.80;96.80
22781;DHT22;11557;50.884;4.322;2023-02-28T11:04:34;12.20;95.40
22781;DHT22;11557;50.884;4.322;2023-02-28T11:07:20;11.40;95.80
22781;DHT22;11557;50.884;4.322;2023-02-28T11:09:48;11.30;97.60
22781;DHT22;11557;50.884;4.322;2023-02-28T11:12:41;11.30;96.50
22781;DHT22;11557;50.884;4.322;2023-02-28T11:15:29;11.20;98.90
22781;DHT22;11557;50.884;4.322;2023-02-28T11:18:22;11.00;98.10
22781;DHT22;11557;50.884;4.322;2023-02-28T11:20:57;10.60;98.90
22781;DHT22;11557;50.884;4.322;2023-02-28T11:23:29;10.50;99.60
22781;DHT22;11557;50.884;4.322;2023-02-28T11:26:00;9.80;98.40
22781;DHT22;11557;50.884;4.322;2023-02-28T11:28:36;9.70;98.80
22781;DHT22;11557;50.884;4.322;2023-02-28T11:33:52;9.60;99.90
22781;DHT22;11557;50.884;4.322;2023-02-28T11:36:27;9.40;99.90
22781;DHT22;11557;50.884;4.322;2023-02-28T11:38:55;9.40;99.90
22781;DHT22;11557;50.884;4.322;2023-02-28T11:41:54;9.60;99.90
22781;DHT22;11557;50.884;4.322;2023-02-28T11:44:45;9.50;99.90
22781;DHT22;11557;50.884;4.322;2023-02-28T12:01:09;9.40;99.90
22781;DHT22;11557;50.884;4.322;2023-02-28T12:03:49;9.40;99.90
22781;DHT22;11557;50.884;4.322;2023-02-28T12:06:43;9.40;99.90
22781;DHT22;11557;50.884;4.322;2023-02-28T12:12:29;9.20;99.90
22781;DHT22;11557;50.884;4.322;2023-02-28T12:20:46;9.00;99.90
22781;DHT22;11557;50.884;4.322;2023-02-28T12:29:08;9.20;99.90
22781;DHT22;11557;50.884;4.322;2023-02-28T12:31:38;9.20;99.90
22781;DHT22;11557;50.884;4.322;2023-02-28T12:34:11;9.00;99.90
22781;DHT22;11557;50.884;4.322;2023-02-28T12:36:40;9.00;99.90
22781;DHT22;11557;50.884;4.322;2023-02-28T12:41:56;8.90;99.90
22781;DHT22;11557;50.884;4.322;2023-02-28T12:44:26;9.00;99.90
22781;DHT22;11557;50.884;4.322;2023-02-28T12:47:03;9.10;99.90
22781;DHT22;11557;50.884;4.322;2023-02-28T12:49:58;9.10;99.90
22781;DHT22;11557;50.884;4.322;2023-02-28T13:03:46;9.10;99.90
22781;DHT22;11557;50.884;4.322;2023-02-28T13:09:18;9.00;99.90
22781;DHT22;11557;50.884;4.322;2023-02-28T13:11:52;9.10;99.90
22781;DHT22;11557;50.884;4.322;2023-02-28T13:14:23;9.20;99.90
22781;DHT22;11557;50.884;4.322;2023-02-28T13:17:10;9.10;99.90
22781;DHT22;11557;50.884;4.322;2023-02-28T13:24:54;8.90;99.90
22781;DHT22;11557;50.884;4.322;2023-02-28T13:27:23;8.80;99.90
22781;DHT22;11557;50.884;4.322;2023-02-28T13:29:50;8.80;99.90
22781;DHT22;11557;50.884;4.322;2023-02-28T13:39:53;8.50;99.90
22781;DHT22;11557;50.884;4.322;2023-02-28T13:47:42;8.30;99.90
22781;DHT22;11557;50.884;4.322;2023-02-28T13:50:34;8.40;99.90
22781;DHT22;11557;50.884;4.322;2023-02-28T14:06:46;8.50;99.90
22781;DHT22;11557;50.884;4.322;2023-02-28T14:09:39;8.30;99.90
22781;DHT22;11557;50.884;4.322;2023-02-28T14:20:47;8.20;99.90
22781;DHT22;11557;50.884;4.322;2023-02-28T14:26:07;8.20;99.90
22781;DHT22;11557;50.884;4.322;2023-02-28T14:28:47;8.40;99.90
22781;DHT22;11557;50.884;4.322;2023-02-28T14:34:26;8.50;99.90
22781;DHT22;11557;50.884;4.322;2023-02-28T14:36:58;8.00;99.90
22781;DHT22;11557;50.884;4.322;2023-02-28T14:39:26;8.50;99.90
22781;DHT22;11557;50.884;4.322;2023-02-28T14:41:53;8.60;99.90
22781;DHT22;11557;50.884;4.322;2023-02-28T14:44:21;8.70;99.90
22781;DHT22;11557;50.884;4.322;2023-02-28T14:46:50;8.80;99.90
22781;DHT22;11557;50.884;4.322;2023-02-28T14:49:20;8.70;99.90
22781;DHT22;11557;50.884;4.322;2023-02-28T14:51:49;8.40;99.90
22781;DHT22;11557;50.884;4.322;2023-02-28T14:54:18;8.50;99.90
22781;DHT22;11557;50.884;4.322;2023-02-28T14:56:50;8.30;99.90
22781;DHT22;11557;50.884;4.322;2023-02-28T14:59:31;8.40;99.90
22781;DHT22;11557;50.884;4.322;2023-02-28T15:02:23;8.30;99.90
22781;DHT22;11557;50.884;4.322;2023-02-28T15:04:57;8.50;99.90
22781;DHT22;11557;50.884;4.322;2023-02-28T15:07:23;8.60;99.90
22781;DHT22;11557;50.884;4.322;2023-02-28T15:10:19;8.80;99.90
22781;DHT22;11557;50.884;4.322;2023-02-28T15:12:57;8.60;99.90
22781;DHT22;11557;50.884;4.322;2023-02-28T15:18:28;8.70;99.90
22781;DHT22;11557;50.884;4.322;2023-02-28T15:20:58;8.70;99.90
22781;DHT22;11557;50.884;4.322;2023-02-28T15:23:27;8.60;99.90
22781;DHT22;11557;50.884;4.322;2023-02-28T15:25:54;8.50;99.90
22781;DHT22;11557;50.884;4.322;2023-02-28T15:28:22;8.60;99.90
22781;DHT22;11557;50.884;4.322;2023-02-28T15:31:00;8.50;99.90
22781;DHT22;11557;50.884;4.322;2023-02-28T15:33:28;8.30;99.90
22781;DHT22;11557;50.884;4.322;2023-02-28T15:36:15;8.30;99.90
22781;DHT22;11557;50.884;4.322;2023-02-28T15:38:42;8.40;99.90
22781;DHT22;11557;50.884;4.322;2023-02-28T15:43:47;7.90;99.90
22781;DHT22;11557;50.884;4.322;2023-02-28T15:46:13;8.10;99.90
22781;DHT22;11557;50.884;4.322;2023-02-28T15:51:18;8.60;99.90
22781;DHT22;11557;50.884;4.322;2023-02-28T15:53:50;8.60;99.90
22781;DHT22;11557;50.884;4.322;2023-02-28T15:56:43;8.40;99.90
22781;DHT22;11557;50.884;4.322;2023-02-28T15:59:16;8.20;99.90
22781;DHT22;11557;50.884;4.322;2023-02-28T16:01:43;8.00;99.90
22781;DHT22;11557;50.884;4.322;2023-02-28T16:04:17;8.00;99.90
22781;DHT22;11557;50.884;4.322;2023-02-28T16:06:44;7.90;99.90
22781;DHT22;11557;50.884;4.322;2023-02-28T16:09:16;8.10;99.90
22781;DHT22;11557;50.884;4.322;2023-02-28T16:11:48;8.10;99.90
22781;DHT22;11557;50.884;4.322;2023-02-28T16:14:22;8.00;99.90
22781;DHT22;11557;50.884;4.322;2023-02-28T16:16:53;7.80;99.90
22781;DHT22;11557;50.884;4.322;2023-02-28T16:19:19;7.60;99.90
22781;DHT22;11557;50.884;4.322;2023-02-28T16:21:46;7.60;99.90
22781;DHT22;11557;50.884;4.322;2023-02-28T16:24:12;7.50;99.90
22781;DHT22;11557;50.884;4.322;2023-02-28T16:26:45;7.50;99.90
22781;DHT22;11557;50.884;4.322;2023-02-28T16:29:32;7.50;99.90
22781;DHT22;11557;50.884;4.322;2023-02-28T16:31:58;7.40;99.90
22781;DHT22;11557;50.884;4.322;2023-02-28T16:34:24;7.30;99.90
22781;DHT22;11557;50.884;4.322;2023-02-28T16:36:50;7.10;99.90
22781;DHT22;11557;50.884;4.322;2023-02-28T16:39:16;7.10;99.90
22781;DHT22;11557;50.884;4.322;2023-02-28T16:41:43;6.80;99.90
22781;DHT22;11557;50.884;4.322;2023-02-28T16:44:14;6.50;99.90
22781;DHT22;11557;50.884;4.322;2023-02-28T16:46:45;6.80;99.90
22781;DHT22;11557;50.884;4.322;2023-02-28T16:49:12;6.80;99.90
22781;DHT22;11557;50.884;4.322;2023-02-28T16:51:38;6.80;99.90
22781;DHT22;11557;50.884;4.322;2023-02-28T16:54:04;6.70;99.90
22781;DHT22;11557;50.884;4.322;2023-02-28T16:56:30;6.60;99.90
22781;DHT22;11557;50.884;4.322;2023-02-28T16:59:00;6.70;99.90
22781;DHT22;11557;50.884;4.322;2023-02-28T17:01:27;6.70;99.90
22781;DHT22;11557;50.884;4.322;2023-02-28T17:03:53;6.70;99.90
22781;DHT22;11557;50.884;4.322;2023-02-28T17:06:27;6.60;99.90
22781;DHT22;11557;50.884;4.322;2023-02-28T17:08:54;6.50;99.90
22781;DHT22;11557;50.884;4.322;2023-02-28T17:11:20;6.40;99.90
22781;DHT22;11557;50.884;4.322;2023-02-28T17:13:47;6.50;99.90
22781;DHT22;11557;50.884;4.322;2023-02-28T17:16:33;6.50;99.90
22781;DHT22;11557;50.884;4.322;2023-02-28T17:19:05;6.40;99.90
22781;DHT22;11557;50.884;4.322;2023-02-28T17:21:32;7.20;99.90
22781;DHT22;11557;50.884;4.322;2023-02-28T17:24:00;6.40;99.90
22781;DHT22;11557;50.884;4.322;2023-02-28T17:26:35;6.40;99.90
22781;DHT22;11557;50.884;4.322;2023-02-28T17:29:01;6.40;99.90
22781;DHT22;11557;50.884;4.322;2023-02-28T17:31:27;6.50;99.90
22781;DHT22;11557;50.884;4.322;2023-02-28T17:33:53;6.40;99.90
22781;DHT22;11557;50.884;4.322;2023-02-28T17:36:24;6.40;99.90
22781;DHT22;11557;50.884;4.322;2023-02-28T17:38:52;6.40;99.90
22781;DHT22;11557;50.884;4.322;2023-02-28T17:41:18;6.40;99.90
22781;DHT22;11557;50.884;4.322;2023-02-28T17:43:44;6.40;99.90
22781;DHT22;11557;50.884;4.322;2023-02-28T17:46:28;6.50;99.90
22781;DHT22;11557;50.884;4.322;2023-02-28T17:48:53;6.50;99.90
22781;DHT22;11557;50.884;4.322;2023-02-28T17:51:23;6.50;99.90
22781;DHT22;11557;50.884;4.322;2023-02-28T17:53:49;6.40;99.90
22781;DHT22;11557;50.884;4.322;2023-02-28T17:56:23;6.20;99.90
22781;DHT22;11557;50.884;4.322;2023-02-28T17:58:51;6.10;99.90
22781;DHT22;11557;50.884;4.322;2023-02-28T18:01:19;6.20;99.90
22781;DHT22;11557;50.884;4.322;2023-02-28T18:03:46;6.10;99.90
22781;DHT22;11557;50.884;4.322;2023-02-28T18:06:21;6.10;99.90
22781;DHT22;11557;50.884;4.322;2023-02-28T18:08:47;6.10;99.90
22781;DHT22;11557;50.884;4.322;2023-02-28T18:11:14;6.10;99.90
22781;DHT22;11557;50.884;4.322;2023-02-28T18:13:51;6.00;99.90
22781;DHT22;11557;50.884;4.322;2023-02-28T18:16:17;6.00;99.90
22781;DHT22;11557;50.884;4.322;2023-02-28T18:18:44;6.00;99.90
22781;DHT22;11557;50.884;4.322;2023-02-28T18:21:11;5.90;99.90
22781;DHT22;11557;50.884;4.322;2023-02-28T18:23:37;6.00;99.90
22781;DHT22;11557;50.884;4.322;2023-02-28T18:26:07;6.00;99.90
22781;DHT22;11557;50.884;4.322;2023-02-28T18:28:33;6.00;99.90
22781;DHT22;11557;50.884;4.322;2023-02-28T18:31:05;6.00;99.90
22781;DHT22;11557;50.884;4.322;2023-02-28T18:33:31;5.80;99.90
22781;DHT22;11557;50.884;4.322;2023-02-28T18:35:57;5.90;99.90
22781;DHT22;11557;50.884;4.322;2023-02-28T18:38:24;5.90;99.90
22781;DHT22;11557;50.884;4.322;2023-02-28T18:40:56;5.80;99.90
22781;DHT22;11557;50.884;4.322;2023-02-28T18:43:22;5.70;99.90